Terminal Aerodrome Forecast
Issued by NWS

Home | Current Version | Previous Version | Text Only | Print | Product List | Glossary On
Versions: 1 2 3 4 5 6 7 8 9 10 11 12 13 14 15
000
FTUS45 KVEF 251731
TAFHND
TAF
KHND 251731Z 2518/2618 21020G30KT P6SM SCT100 BKN150 OVC200
     FM252100 21024G34KT P6SM SCT100 BKN150
     FM260000 25020G30KT P6SM VCSH BKN080 OVC120
      TEMPO 2601/2603 -SHRA OVC080
     FM260300 34012G20KT P6SM SCT080 BKN120
     FM260700 32010G20KT P6SM FEW120
     FM261500 35018G28KT P6SM SCT250=

USA.gov is the U.S. government's official web portal to all federal, state and local government web resources and services.